sensor_id;sensor_type;location;lat;lon;timestamp;pressure;altitude;pressure_sealevel;temperature;humidity
73297;BME280;61524;50.938;11.396;2022-07-29T00:02:00;99151.44;;;13.64;64.81
73297;BME280;61524;50.938;11.396;2022-07-29T00:04:25;99147.88;;;13.49;64.86
73297;BME280;61524;50.938;11.396;2022-07-29T00:06:51;99144.94;;;13.50;65.21
73297;BME280;61524;50.938;11.396;2022-07-29T00:09:16;99136.63;;;13.47;64.40
73297;BME280;61524;50.938;11.396;2022-07-29T00:11:42;99134.41;;;13.38;65.00
73297;BME280;61524;50.938;11.396;2022-07-29T00:14:07;99119.91;;;13.29;65.10
73297;BME280;61524;50.938;11.396;2022-07-29T00:16:33;99124.75;;;13.37;64.22
73297;BME280;61524;50.938;11.396;2022-07-29T00:18:58;99129.34;;;13.42;66.12
73297;BME280;61524;50.938;11.396;2022-07-29T00:21:24;99122.31;;;13.31;65.81
73297;BME280;61524;50.938;11.396;2022-07-29T00:23:49;99115.34;;;13.30;65.51
73297;BME280;61524;50.938;11.396;2022-07-29T00:26:15;99119.91;;;13.34;65.21
73297;BME280;61524;50.938;11.396;2022-07-29T00:28:40;99108.13;;;13.35;65.13
73297;BME280;61524;50.938;11.396;2022-07-29T00:31:06;99108.66;;;13.37;65.65
73297;BME280;61524;50.938;11.396;2022-07-29T00:33:33;99107.59;;;13.44;64.94
73297;BME280;61524;50.938;11.396;2022-07-29T00:35:58;99119.94;;;13.45;65.28
73297;BME280;61524;50.938;11.396;2022-07-29T00:38:24;99108.69;;;13.43;66.01
73297;BME280;61524;50.938;11.396;2022-07-29T00:40:49;99100.28;;;13.29;66.79
73297;BME280;61524;50.938;11.396;2022-07-29T00:43:16;99112.41;;;13.31;66.65
73297;BME280;61524;50.938;11.396;2022-07-29T00:45:42;99104.31;;;13.21;66.79
73297;BME280;61524;50.938;11.396;2022-07-29T00:48:08;99100.78;;;13.21;66.90
73297;BME280;61524;50.938;11.396;2022-07-29T00:50:34;99099.97;;;13.15;67.21
73297;BME280;61524;50.938;11.396;2022-07-29T00:53:01;99096.75;;;13.13;68.09
73297;BME280;61524;50.938;11.396;2022-07-29T00:55:27;99097.53;;;13.08;67.70
73297;BME280;61524;50.938;11.396;2022-07-29T00:57:54;99089.66;;;12.97;67.95
73297;BME280;61524;50.938;11.396;2022-07-29T01:00:24;99087.28;;;13.00;68.09
73297;BME280;61524;50.938;11.396;2022-07-29T01:02:50;99081.88;;;12.95;68.86
73297;BME280;61524;50.938;11.396;2022-07-29T01:05:24;99082.16;;;12.94;68.80
73297;BME280;61524;50.938;11.396;2022-07-29T01:07:53;99089.66;;;12.92;68.76
73297;BME280;61524;50.938;11.396;2022-07-29T01:10:20;99080.78;;;12.91;68.89
73297;BME280;61524;50.938;11.396;2022-07-29T01:12:48;99081.84;;;12.85;68.57
73297;BME280;61524;50.938;11.396;2022-07-29T01:15:14;99071.63;;;12.82;69.09
73297;BME280;61524;50.938;11.396;2022-07-29T01:30:54;99071.34;;;12.78;70.05
73297;BME280;61524;50.938;11.396;2022-07-29T01:33:21;99069.72;;;12.72;70.27
73297;BME280;61524;50.938;11.396;2022-07-29T01:36:16;99070.00;;;12.76;70.22
73297;BME280;61524;50.938;11.396;2022-07-29T01:38:44;99054.97;;;12.75;70.24
73297;BME280;61524;50.938;11.396;2022-07-29T01:41:16;99062.78;;;12.81;69.46
73297;BME280;61524;50.938;11.396;2022-07-29T01:43:53;99047.72;;;12.70;70.93
73297;BME280;61524;50.938;11.396;2022-07-29T01:46:24;99048.53;;;12.71;70.76
73297;BME280;61524;50.938;11.396;2022-07-29T01:48:56;99038.03;;;12.64;71.67
73297;BME280;61524;50.938;11.396;2022-07-29T01:51:35;99045.59;;;12.72;70.58
73297;BME280;61524;50.938;11.396;2022-07-29T01:56:39;99037.28;;;12.74;70.86
73297;BME280;61524;50.938;11.396;2022-07-29T01:59:07;99040.22;;;12.72;70.85
73297;BME280;61524;50.938;11.396;2022-07-29T02:01:34;99047.19;;;12.73;71.04
73297;BME280;61524;50.938;11.396;2022-07-29T02:04:05;99043.69;;;12.68;71.08
73297;BME280;61524;50.938;11.396;2022-07-29T02:06:33;99043.69;;;12.68;71.03
73297;BME280;61524;50.938;11.396;2022-07-29T02:09:01;99044.97;;;12.60;71.50
73297;BME280;61524;50.938;11.396;2022-07-29T02:11:29;99048.94;;;12.52;71.93
73297;BME280;61524;50.938;11.396;2022-07-29T02:13:56;99048.97;;;12.57;71.44
73297;BME280;61524;50.938;11.396;2022-07-29T02:16:23;99058.75;;;12.37;72.23
73297;BME280;61524;50.938;11.396;2022-07-29T02:18:53;99066.22;;;12.29;72.63
73297;BME280;61524;50.938;11.396;2022-07-29T02:21:21;99059.97;;;12.19;73.17
73297;BME280;61524;50.938;11.396;2022-07-29T02:23:49;99046.94;;;12.27;72.61
73297;BME280;61524;50.938;11.396;2022-07-29T02:26:17;99046.94;;;12.27;72.55
73297;BME280;61524;50.938;11.396;2022-07-29T02:28:44;99042.41;;;12.33;72.30
73297;BME280;61524;50.938;11.396;2022-07-29T02:31:12;99050.19;;;12.34;72.93
73297;BME280;61524;50.938;11.396;2022-07-29T02:33:40;99051.28;;;12.39;72.14
73297;BME280;61524;50.938;11.396;2022-07-29T02:36:06;99054.19;;;12.37;72.22
73297;BME280;61524;50.938;11.396;2022-07-29T02:38:34;99047.97;;;12.26;73.17
73297;BME280;61524;50.938;11.396;2022-07-29T02:41:33;99045.56;;;12.25;73.09
73297;BME280;61524;50.938;11.396;2022-07-29T02:44:11;99051.44;;;12.22;73.52
73297;BME280;61524;50.938;11.396;2022-07-29T02:46:41;99036.72;;;12.24;73.16
73297;BME280;61524;50.938;11.396;2022-07-29T02:51:51;99028.28;;;12.05;74.05
73297;BME280;61524;50.938;11.396;2022-07-29T02:54:26;99031.91;;;11.94;74.59
73297;BME280;61524;50.938;11.396;2022-07-29T02:56:59;99025.72;;;11.89;74.04
73297;BME280;61524;50.938;11.396;2022-07-29T02:59:27;99026.44;;;11.79;74.76
73297;BME280;61524;50.938;11.396;2022-07-29T03:01:57;99031.28;;;11.82;75.29
73297;BME280;61524;50.938;11.396;2022-07-29T03:04:24;99029.88;;;11.74;75.95
73297;BME280;61524;50.938;11.396;2022-07-29T03:06:52;99037.28;;;11.67;75.56
73297;BME280;61524;50.938;11.396;2022-07-29T03:09:18;99029.88;;;11.74;75.08
73297;BME280;61524;50.938;11.396;2022-07-29T03:11:44;99033.09;;;11.76;75.00
73297;BME280;61524;50.938;11.396;2022-07-29T03:14:10;99034.69;;;11.77;74.92
73297;BME280;61524;50.938;11.396;2022-07-29T03:16:37;99033.66;;;11.78;74.75
73297;BME280;61524;50.938;11.396;2022-07-29T03:19:03;99039.63;;;11.86;74.70
73297;BME280;61524;50.938;11.396;2022-07-29T03:21:29;99034.78;;;11.82;75.47
73297;BME280;61524;50.938;11.396;2022-07-29T03:23:55;99033.69;;;11.83;75.10
73297;BME280;61524;50.938;11.396;2022-07-29T03:26:21;99025.44;;;11.85;74.96
73297;BME280;61524;50.938;11.396;2022-07-29T03:28:46;99030.66;;;11.75;75.18
73297;BME280;61524;50.938;11.396;2022-07-29T03:31:12;99027.13;;;11.69;75.09
73297;BME280;61524;50.938;11.396;2022-07-29T03:33:37;99036.03;;;11.75;74.89
73297;BME280;61524;50.938;11.396;2022-07-29T03:36:03;99042.09;;;11.65;75.10
73297;BME280;61524;50.938;11.396;2022-07-29T03:38:29;99048.50;;;11.64;75.62
73297;BME280;61524;50.938;11.396;2022-07-29T03:41:00;99039.88;;;11.57;75.90
73297;BME280;61524;50.938;11.396;2022-07-29T03:43:30;99045.78;;;11.59;75.20
73297;BME280;61524;50.938;11.396;2022-07-29T03:45:57;99051.44;;;11.63;75.08
73297;BME280;61524;50.938;11.396;2022-07-29T03:48:26;99050.59;;;11.62;74.99
73297;BME280;61524;50.938;11.396;2022-07-29T03:50:52;99047.34;;;11.55;75.66
73297;BME280;61524;50.938;11.396;2022-07-29T03:53:18;99051.63;;;11.56;75.30
73297;BME280;61524;50.938;11.396;2022-07-29T03:55:47;99052.19;;;11.58;74.64
73297;BME280;61524;50.938;11.396;2022-07-29T03:58:14;99052.47;;;11.62;74.93
73297;BME280;61524;50.938;11.396;2022-07-29T04:00:42;99053.63;;;11.71;74.53
73297;BME280;61524;50.938;11.396;2022-07-29T04:03:09;99056.06;;;11.72;74.98
73297;BME280;61524;50.938;11.396;2022-07-29T04:05:35;99054.75;;;11.75;75.06
73297;BME280;61524;50.938;11.396;2022-07-29T04:08:01;99062.59;;;11.81;74.99
73297;BME280;61524;50.938;11.396;2022-07-29T04:10:26;99049.00;;;11.88;75.07
73297;BME280;61524;50.938;11.396;2022-07-29T04:12:52;99053.91;;;11.96;74.12
73297;BME280;61524;50.938;11.396;2022-07-29T04:15:18;99064.91;;;12.00;73.59
73297;BME280;61524;50.938;11.396;2022-07-29T04:17:43;99054.81;;;12.07;73.97
73297;BME280;61524;50.938;11.396;2022-07-29T04:20:10;99054.63;;;12.19;72.60
73297;BME280;61524;50.938;11.396;2022-07-29T04:22:41;99052.69;;;12.14;72.85
73297;BME280;61524;50.938;11.396;2022-07-29T04:25:07;99057.03;;;12.20;73.65
73297;BME280;61524;50.938;11.396;2022-07-29T04:27:33;99053.03;;;12.23;73.34
73297;BME280;61524;50.938;11.396;2022-07-29T04:29:58;99051.47;;;12.27;72.01
73297;BME280;61524;50.938;11.396;2022-07-29T04:32:24;99048.31;;;12.35;71.52
73297;BME280;61524;50.938;11.396;2022-07-29T04:34:50;99058.03;;;12.46;70.90
73297;BME280;61524;50.938;11.396;2022-07-29T04:37:16;99061.44;;;12.37;71.42
73297;BME280;61524;50.938;11.396;2022-07-29T04:39:41;99057.22;;;12.46;71.04
73297;BME280;61524;50.938;11.396;2022-07-29T04:42:07;99054.28;;;12.47;71.57
73297;BME280;61524;50.938;11.396;2022-07-29T04:44:32;99049.22;;;12.51;71.79
73297;BME280;61524;50.938;11.396;2022-07-29T04:46:58;99053.00;;;12.55;70.86
73297;BME280;61524;50.938;11.396;2022-07-29T04:49:23;99051.69;;;12.63;70.69
73297;BME280;61524;50.938;11.396;2022-07-29T04:51:49;99056.59;;;12.76;71.50
73297;BME280;61524;50.938;11.396;2022-07-29T04:54:14;99048.31;;;12.82;71.81
73297;BME280;61524;50.938;11.396;2022-07-29T04:56:40;99053.78;;;13.03;70.66
73297;BME280;61524;50.938;11.396;2022-07-29T04:59:06;99049.75;;;13.05;71.27
73297;BME280;61524;50.938;11.396;2022-07-29T05:01:32;99050.59;;;13.16;71.93
73297;BME280;61524;50.938;11.396;2022-07-29T05:03:57;99053.31;;;13.21;72.04
73297;BME280;61524;50.938;11.396;2022-07-29T05:06:23;99060.88;;;13.29;71.41
73297;BME280;61524;50.938;11.396;2022-07-29T05:08:48;99055.50;;;13.24;71.25
73297;BME280;61524;50.938;11.396;2022-07-29T05:11:13;99053.88;;;13.28;71.59
73297;BME280;61524;50.938;11.396;2022-07-29T05:13:39;99051.22;;;13.33;72.23
73297;BME280;61524;50.938;11.396;2022-07-29T05:16:05;99048.53;;;13.38;72.75
73297;BME280;61524;50.938;11.396;2022-07-29T05:18:30;99043.16;;;13.33;74.10
73297;BME280;61524;50.938;11.396;2022-07-29T05:20:56;99044.25;;;13.37;73.80
73297;BME280;61524;50.938;11.396;2022-07-29T05:23:21;99044.28;;;13.43;73.11
73297;BME280;61524;50.938;11.396;2022-07-29T05:25:46;99045.38;;;13.52;73.49
73297;BME280;61524;50.938;11.396;2022-07-29T05:28:12;99054.53;;;14.12;71.09
73297;BME280;61524;50.938;11.396;2022-07-29T05:30:38;99058.84;;;14.13;69.41
73297;BME280;61524;50.938;11.396;2022-07-29T05:33:03;99054.03;;;14.00;69.54
73297;BME280;61524;50.938;11.396;2022-07-29T05:35:28;99056.44;;;14.01;70.50
73297;BME280;61524;50.938;11.396;2022-07-29T05:37:54;99064.22;;;14.03;68.94
73297;BME280;61524;50.938;11.396;2022-07-29T05:40:19;99059.66;;;14.08;69.36
73297;BME280;61524;50.938;11.396;2022-07-29T05:42:45;99066.31;;;14.72;67.42
73297;BME280;61524;50.938;11.396;2022-07-29T05:45:11;99075.00;;;15.29;65.68
73297;BME280;61524;50.938;11.396;2022-07-29T05:47:36;99087.50;;;15.64;64.15
73297;BME280;61524;50.938;11.396;2022-07-29T05:50:02;99082.22;;;15.38;65.79
73297;BME280;61524;50.938;11.396;2022-07-29T05:52:27;99084.75;;;15.19;66.88
73297;BME280;61524;50.938;11.396;2022-07-29T05:54:53;99081.09;;;15.99;64.36
73297;BME280;61524;50.938;11.396;2022-07-29T05:57:21;99095.06;;;16.35;64.09
73297;BME280;61524;50.938;11.396;2022-07-29T05:59:48;99090.13;;;17.43;59.19
73297;BME280;61524;50.938;11.396;2022-07-29T06:02:14;99095.38;;;17.96;57.72
73297;BME280;61524;50.938;11.396;2022-07-29T06:04:40;99080.00;;;17.35;57.92
73297;BME280;61524;50.938;11.396;2022-07-29T06:07:05;99084.16;;;17.46;57.40
73297;BME280;61524;50.938;11.396;2022-07-29T06:09:32;99089.88;;;17.64;57.07
73297;BME280;61524;50.938;11.396;2022-07-29T06:11:58;99087.78;;;17.79;54.82
73297;BME280;61524;50.938;11.396;2022-07-29T06:14:24;99089.53;;;18.73;53.75
73297;BME280;61524;50.938;11.396;2022-07-29T06:16:49;99099.59;;;19.91;48.39
73297;BME280;61524;50.938;11.396;2022-07-29T06:19:15;99089.06;;;19.76;48.69
73297;BME280;61524;50.938;11.396;2022-07-29T06:21:44;99090.00;;;19.94;49.03
73297;BME280;61524;50.938;11.396;2022-07-29T06:24:11;99096.34;;;19.89;48.74
73297;BME280;61524;50.938;11.396;2022-07-29T06:26:38;99098.69;;;19.82;48.92
73297;BME280;61524;50.938;11.396;2022-07-29T06:29:03;99097.44;;;20.02;48.96
73297;BME280;61524;50.938;11.396;2022-07-29T06:31:29;99103.53;;;20.30;47.50
73297;BME280;61524;50.938;11.396;2022-07-29T06:33:54;99108.44;;;20.73;46.03
73297;BME280;61524;50.938;11.396;2022-07-29T06:36:20;99105.00;;;20.59;45.95
73297;BME280;61524;50.938;11.396;2022-07-29T06:38:45;99095.53;;;20.79;46.41
73297;BME280;61524;50.938;11.396;2022-07-29T06:41:11;99089.03;;;20.35;47.26
73297;BME280;61524;50.938;11.396;2022-07-29T06:43:41;99093.34;;;20.58;46.32
73297;BME280;61524;50.938;11.396;2022-07-29T06:46:12;99077.75;;;19.47;48.04
73297;BME280;61524;50.938;11.396;2022-07-29T06:48:39;99082.66;;;19.58;48.37
73297;BME280;61524;50.938;11.396;2022-07-29T06:51:06;99098.31;;;20.56;47.28
73297;BME280;61524;50.938;11.396;2022-07-29T06:53:32;99091.09;;;20.91;45.48
73297;BME280;61524;50.938;11.396;2022-07-29T06:55:59;99087.56;;;20.29;46.81
73297;BME280;61524;50.938;11.396;2022-07-29T06:58:28;99085.34;;;20.53;45.72
73297;BME280;61524;50.938;11.396;2022-07-29T07:00:54;99083.22;;;20.81;44.98
73297;BME280;61524;50.938;11.396;2022-07-29T07:03:19;99085.81;;;20.55;45.51
73297;BME280;61524;50.938;11.396;2022-07-29T07:05:45;99089.91;;;21.06;44.72
73297;BME280;61524;50.938;11.396;2022-07-29T07:08:12;99085.41;;;21.02;44.58
73297;BME280;61524;50.938;11.396;2022-07-29T07:10:37;99093.56;;;21.67;42.93
73297;BME280;61524;50.938;11.396;2022-07-29T07:13:04;99095.16;;;21.51;42.98
73297;BME280;61524;50.938;11.396;2022-07-29T07:15:29;99080.84;;;20.80;44.81
73297;BME280;61524;50.938;11.396;2022-07-29T07:17:55;99082.31;;;20.86;44.50
73297;BME280;61524;50.938;11.396;2022-07-29T07:20:20;99082.53;;;20.44;44.88
73297;BME280;61524;50.938;11.396;2022-07-29T07:22:46;99081.47;;;21.25;44.08
73297;BME280;61524;50.938;11.396;2022-07-29T07:25:12;99093.53;;;22.63;41.50
73297;BME280;61524;50.938;11.396;2022-07-29T07:27:38;99090.81;;;23.10;39.53
73297;BME280;61524;50.938;11.396;2022-07-29T07:30:05;99081.84;;;22.53;40.97
73297;BME280;61524;50.938;11.396;2022-07-29T07:32:31;99081.41;;;22.34;40.30
73297;BME280;61524;50.938;11.396;2022-07-29T07:34:57;99082.50;;;22.97;39.34
73297;BME280;61524;50.938;11.396;2022-07-29T07:37:24;99076.38;;;23.09;39.41
73297;BME280;61524;50.938;11.396;2022-07-29T07:39:51;99082.63;;;23.60;38.58
73297;BME280;61524;50.938;11.396;2022-07-29T07:42:17;99082.88;;;24.30;38.63
73297;BME280;61524;50.938;11.396;2022-07-29T07:44:42;99078.28;;;25.12;36.46
73297;BME280;61524;50.938;11.396;2022-07-29T07:47:08;99075.66;;;25.16;36.16
73297;BME280;61524;50.938;11.396;2022-07-29T07:49:34;99082.50;;;25.10;35.42
73297;BME280;61524;50.938;11.396;2022-07-29T07:51:59;99082.72;;;25.42;34.03
73297;BME280;61524;50.938;11.396;2022-07-29T07:54:25;99061.53;;;25.26;34.50
73297;BME280;61524;50.938;11.396;2022-07-29T07:56:51;99053.09;;;24.37;35.86
73297;BME280;61524;50.938;11.396;2022-07-29T07:59:17;99051.03;;;23.59;37.91
73297;BME280;61524;50.938;11.396;2022-07-29T08:01:42;99069.50;;;24.37;37.32
73297;BME280;61524;50.938;11.396;2022-07-29T08:04:08;99073.81;;;24.71;36.83
73297;BME280;61524;50.938;11.396;2022-07-29T08:06:34;99059.19;;;24.22;37.28
73297;BME280;61524;50.938;11.396;2022-07-29T08:09:02;99042.00;;;23.67;38.09
73297;BME280;61524;50.938;11.396;2022-07-29T08:11:27;99063.91;;;24.00;37.55
73297;BME280;61524;50.938;11.396;2022-07-29T08:13:54;99054.97;;;24.12;38.22
73297;BME280;61524;50.938;11.396;2022-07-29T08:16:19;99054.66;;;22.92;39.59
73297;BME280;61524;50.938;11.396;2022-07-29T08:18:45;99057.47;;;23.34;39.54
73297;BME280;61524;50.938;11.396;2022-07-29T08:21:12;99055.56;;;23.97;37.75
73297;BME280;61524;50.938;11.396;2022-07-29T08:23:37;99067.03;;;24.11;38.13
73297;BME280;61524;50.938;11.396;2022-07-29T08:26:12;99062.97;;;23.96;37.84
73297;BME280;61524;50.938;11.396;2022-07-29T08:28:39;99072.72;;;24.18;38.50
73297;BME280;61524;50.938;11.396;2022-07-29T08:31:05;99058.28;;;24.63;38.21
73297;BME280;61524;50.938;11.396;2022-07-29T08:33:30;99054.91;;;24.33;37.56
73297;BME280;61524;50.938;11.396;2022-07-29T08:35:56;99054.53;;;24.80;37.16
73297;BME280;61524;50.938;11.396;2022-07-29T08:38:21;99054.75;;;24.50;37.65
73297;BME280;61524;50.938;11.396;2022-07-29T08:40:47;99042.72;;;23.97;38.18
73297;BME280;61524;50.938;11.396;2022-07-29T08:43:12;99051.53;;;24.48;37.00
73297;BME280;61524;50.938;11.396;2022-07-29T08:45:46;99042.34;;;24.20;38.23
73297;BME280;61524;50.938;11.396;2022-07-29T08:48:13;99054.78;;;24.99;36.72
73297;BME280;61524;50.938;11.396;2022-07-29T08:50:39;99051.72;;;24.88;36.62
73297;BME280;61524;50.938;11.396;2022-07-29T08:53:05;99042.56;;;24.27;38.11
73297;BME280;61524;50.938;11.396;2022-07-29T08:55:32;99045.72;;;24.38;39.07
73297;BME280;61524;50.938;11.396;2022-07-29T08:57:59;99043.91;;;24.42;38.63
73297;BME280;61524;50.938;11.396;2022-07-29T09:00:26;99047.19;;;24.35;38.29
73297;BME280;61524;50.938;11.396;2022-07-29T09:02:56;99045.50;;;24.43;38.50
73297;BME280;61524;50.938;11.396;2022-07-29T09:05:23;99046.56;;;24.63;37.66
73297;BME280;61524;50.938;11.396;2022-07-29T09:07:50;99041.03;;;25.20;37.23
73297;BME280;61524;50.938;11.396;2022-07-29T09:10:16;99044.75;;;24.91;36.72
73297;BME280;61524;50.938;11.396;2022-07-29T09:12:41;99041.09;;;24.63;37.84
73297;BME280;61524;50.938;11.396;2022-07-29T09:15:07;99032.66;;;24.55;37.72
73297;BME280;61524;50.938;11.396;2022-07-29T09:17:47;99030.88;;;24.72;37.83
73297;BME280;61524;50.938;11.396;2022-07-29T09:20:17;99036.22;;;25.05;36.91
73297;BME280;61524;50.938;11.396;2022-07-29T09:22:44;99029.97;;;24.22;37.65
73297;BME280;61524;50.938;11.396;2022-07-29T09:25:14;99032.78;;;24.96;37.06
73297;BME280;61524;50.938;11.396;2022-07-29T09:27:39;99032.75;;;25.45;35.84
73297;BME280;61524;50.938;11.396;2022-07-29T09:30:08;99031.28;;;25.47;35.73
73297;BME280;61524;50.938;11.396;2022-07-29T09:32:56;99023.81;;;24.95;36.62
73297;BME280;61524;50.938;11.396;2022-07-29T09:35:24;99021.41;;;25.30;36.46
73297;BME280;61524;50.938;11.396;2022-07-29T09:37:50;99015.59;;;24.83;36.29
73297;BME280;61524;50.938;11.396;2022-07-29T09:40:17;99014.53;;;25.49;35.45
73297;BME280;61524;50.938;11.396;2022-07-29T09:42:44;99007.88;;;25.62;35.54
73297;BME280;61524;50.938;11.396;2022-07-29T09:45:09;99013.44;;;25.25;35.81
73297;BME280;61524;50.938;11.396;2022-07-29T09:47:47;99012.69;;;25.53;35.33
73297;BME280;61524;50.938;11.396;2022-07-29T09:50:15;99000.44;;;24.85;36.23
73297;BME280;61524;50.938;11.396;2022-07-29T09:52:49;98995.78;;;24.74;36.76
73297;BME280;61524;50.938;11.396;2022-07-29T09:55:15;98993.97;;;24.78;36.49
73297;BME280;61524;50.938;11.396;2022-07-29T09:57:41;98994.53;;;24.96;36.62
73297;BME280;61524;50.938;11.396;2022-07-29T10:00:12;98987.69;;;25.26;35.98
73297;BME280;61524;50.938;11.396;2022-07-29T10:02:41;98992.94;;;25.59;35.18
73297;BME280;61524;50.938;11.396;2022-07-29T10:05:17;98989.00;;;25.45;34.74
73297;BME280;61524;50.938;11.396;2022-07-29T10:08:01;98989.72;;;25.70;33.88
73297;BME280;61524;50.938;11.396;2022-07-29T10:10:32;98996.81;;;26.42;33.54
73297;BME280;61524;50.938;11.396;2022-07-29T10:13:04;98996.66;;;27.02;32.24
73297;BME280;61524;50.938;11.396;2022-07-29T10:15:33;99008.22;;;26.60;32.52
73297;BME280;61524;50.938;11.396;2022-07-29T10:18:02;98995.38;;;26.49;32.74
73297;BME280;61524;50.938;11.396;2022-07-29T10:20:28;98987.97;;;27.00;31.92
73297;BME280;61524;50.938;11.396;2022-07-29T10:22:54;98989.13;;;26.48;32.56
73297;BME280;61524;50.938;11.396;2022-07-29T10:25:21;98983.75;;;26.24;33.02
73297;BME280;61524;50.938;11.396;2022-07-29T10:27:47;98985.09;;;26.93;32.09
73297;BME280;61524;50.938;11.396;2022-07-29T10:30:14;98988.44;;;27.18;31.12
73297;BME280;61524;50.938;11.396;2022-07-29T10:33:05;98986.81;;;27.01;31.37
73297;BME280;61524;50.938;11.396;2022-07-29T10:35:43;98974.72;;;27.57;30.37
73297;BME280;61524;50.938;11.396;2022-07-29T10:44:04;98970.81;;;27.58;29.60
73297;BME280;61524;50.938;11.396;2022-07-29T10:46:39;98960.09;;;28.11;29.74
73297;BME280;61524;50.938;11.396;2022-07-29T10:49:15;98961.91;;;28.03;30.03
73297;BME280;61524;50.938;11.396;2022-07-29T10:51:50;98967.25;;;27.73;28.98
73297;BME280;61524;50.938;11.396;2022-07-29T10:59:51;98945.09;;;27.08;31.29
73297;BME280;61524;50.938;11.396;2022-07-29T11:05:08;98953.31;;;27.66;31.10
73297;BME280;61524;50.938;11.396;2022-07-29T11:07:35;98948.50;;;27.20;30.14
73297;BME280;61524;50.938;11.396;2022-07-29T11:15:11;98939.03;;;27.37;32.00
73297;BME280;61524;50.938;11.396;2022-07-29T11:23:00;98941.94;;;27.25;30.42
73297;BME280;61524;50.938;11.396;2022-07-29T11:25:26;98933.06;;;27.12;30.66
73297;BME280;61524;50.938;11.396;2022-07-29T11:27:53;98934.63;;;26.62;31.33
73297;BME280;61524;50.938;11.396;2022-07-29T11:30:19;98937.78;;;26.80;31.42
73297;BME280;61524;50.938;11.396;2022-07-29T11:32:45;98935.97;;;26.53;32.10
73297;BME280;61524;50.938;11.396;2022-07-29T11:35:21;98944.38;;;26.95;31.13
73297;BME280;61524;50.938;11.396;2022-07-29T11:38:24;98947.94;;;27.50;31.51
73297;BME280;61524;50.938;11.396;2022-07-29T11:46:44;98944.69;;;27.25;31.73
73297;BME280;61524;50.938;11.396;2022-07-29T11:49:13;98933.13;;;27.00;31.51
73297;BME280;61524;50.938;11.396;2022-07-29T11:51:53;98938.47;;;26.93;31.25
73297;BME280;61524;50.938;11.396;2022-07-29T11:54:26;98926.59;;;26.38;32.30
73297;BME280;61524;50.938;11.396;2022-07-29T11:56:57;98939.94;;;26.71;32.53
73297;BME280;61524;50.938;11.396;2022-07-29T11:59:23;98941.09;;;26.70;32.15
73297;BME280;61524;50.938;11.396;2022-07-29T12:01:56;98943.81;;;26.70;32.20
73297;BME280;61524;50.938;11.396;2022-07-29T12:04:22;98923.06;;;26.53;31.87
73297;BME280;61524;50.938;11.396;2022-07-29T12:06:57;98930.94;;;26.55;32.22
73297;BME280;61524;50.938;11.396;2022-07-29T12:09:23;98915.03;;;26.45;32.11
73297;BME280;61524;50.938;11.396;2022-07-29T12:11:49;98916.25;;;26.47;31.92
73297;BME280;61524;50.938;11.396;2022-07-29T12:14:31;98911.38;;;26.40;31.82
73297;BME280;61524;50.938;11.396;2022-07-29T12:16:57;98912.75;;;26.82;32.14
73297;BME280;61524;50.938;11.396;2022-07-29T12:19:23;98920.00;;;26.74;31.90
73297;BME280;61524;50.938;11.396;2022-07-29T12:21:51;98907.59;;;26.61;31.50
73297;BME280;61524;50.938;11.396;2022-07-29T12:24:17;98916.44;;;26.89;31.80
73297;BME280;61524;50.938;11.396;2022-07-29T12:26:55;98910.22;;;27.08;31.54
73297;BME280;61524;50.938;11.396;2022-07-29T12:29:21;98908.03;;;26.98;31.62
73297;BME280;61524;50.938;11.396;2022-07-29T12:31:51;98914.06;;;26.88;31.81
73297;BME280;61524;50.938;11.396;2022-07-29T12:34:20;98903.59;;;26.58;32.17
73297;BME280;61524;50.938;11.396;2022-07-29T12:36:46;98897.78;;;26.44;31.79
73297;BME280;61524;50.938;11.396;2022-07-29T12:39:11;98900.91;;;26.42;32.35
73297;BME280;61524;50.938;11.396;2022-07-29T12:41:37;98898.94;;;26.27;32.68
73297;BME280;61524;50.938;11.396;2022-07-29T12:44:03;98904.47;;;26.15;33.01
73297;BME280;61524;50.938;11.396;2022-07-29T12:46:29;98897.75;;;25.81;32.61
73297;BME280;61524;50.938;11.396;2022-07-29T12:48:55;98884.88;;;25.81;33.34
73297;BME280;61524;50.938;11.396;2022-07-29T13:20:06;98884.09;;;26.12;33.50
73297;BME280;61524;50.938;11.396;2022-07-29T13:22:23;98883.19;;;26.24;33.90
73297;BME280;61524;50.938;11.396;2022-07-29T13:25:01;98887.88;;;26.55;32.90
73297;BME280;61524;50.938;11.396;2022-07-29T13:27:33;98880.28;;;26.33;32.92
73297;BME280;61524;50.938;11.396;2022-07-29T13:30:00;98879.50;;;26.32;33.19
73297;BME280;61524;50.938;11.396;2022-07-29T13:32:27;98895.28;;;26.39;32.90
73297;BME280;61524;50.938;11.396;2022-07-29T13:34:53;98889.69;;;26.67;32.54
73297;BME280;61524;50.938;11.396;2022-07-29T13:37:19;98888.06;;;26.47;33.09
73297;BME280;61524;50.938;11.396;2022-07-29T13:39:44;98886.72;;;26.56;33.17
73297;BME280;61524;50.938;11.396;2022-07-29T13:42:10;98888.41;;;26.45;33.40
73297;BME280;61524;50.938;11.396;2022-07-29T13:44:38;98884.06;;;26.60;32.58
73297;BME280;61524;50.938;11.396;2022-07-29T13:47:05;98875.47;;;26.61;32.45
73297;BME280;61524;50.938;11.396;2022-07-29T13:49:30;98877.38;;;27.12;31.93
73297;BME280;61524;50.938;11.396;2022-07-29T13:51:55;98871.38;;;27.26;32.43
73297;BME280;61524;50.938;11.396;2022-07-29T13:54:21;98866.69;;;27.07;32.13
73297;BME280;61524;50.938;11.396;2022-07-29T13:56:46;98863.53;;;27.24;32.07
73297;BME280;61524;50.938;11.396;2022-07-29T13:59:12;98866.97;;;27.40;32.02
73297;BME280;61524;50.938;11.396;2022-07-29T14:01:38;98861.78;;;27.35;32.35
73297;BME280;61524;50.938;11.396;2022-07-29T14:04:06;98874.69;;;27.73;32.72
73297;BME280;61524;50.938;11.396;2022-07-29T14:06:32;98867.53;;;27.92;32.13
73297;BME280;61524;50.938;11.396;2022-07-29T14:08:57;98879.38;;;27.73;31.67
73297;BME280;61524;50.938;11.396;2022-07-29T14:11:22;98863.69;;;27.73;31.52